x

Portland 12 Nm Southeast Of Portland,me (44007) Wave Buoy

8:50pm - Thu 20th Nov 2014 All times are EST. -5 hours from GMT.

  • Sig Wave height 2.6ft
  • Swell Direction
  • Peak Period 5s
  • Average Period 4s
  • Wind
    22mph, 27mph gusts
  • Sea Temp 51°f
  • 空気 Temp 37°f
  • Sea Pressure 1010.2mb
  • Portland 12 Nm Southeast Of Portland,me
  • Portland 12 Nm Southeast Of Portland,me

More Historic Weather Station data

Upgrade to MSW Pro to gain access to the past 30 days of data for over 8000 Wavebouys and Weather Stations around the globe.

Join Pro

Comparision Forecast

View Surf forecast
   
Thu 11/20 8:50pm 2.5ft 5s 4s 22 27 mph 1010.2mb 51f 37f
7:50pm 2.5ft 6s 4s 20 25 mph 1009.7mb 51f 37f
6:50pm 3ft 6s 4s 18 20 mph 1009.5mb 51f 38f
5:50pm 3.5ft 6s 4s 20 25 mph 1008.3mb 51f 39f
4:50pm 3.5ft 6s 4s 22 25 mph 1007.3mb 51f 42f
3:50pm 4ft 6s 4s 20 27 mph 1006.7mb 51f 43f
2:50pm 3.5ft 6s 5s 20 27 mph 1006.3mb 51f 43f
1:50pm 3.5ft 6s 5s 16 20 mph 1007mb 52f 42f
12:50pm 3.5ft 7s 5s 16 22 mph 1007.4mb 51f 41f
11:50am 4ft 6s 5s 16 18 mph 1008.3mb 51f 39f
10:50am 4.5ft 6s 5s 18 22 mph 1009.3mb 51f 39f
9:50am 4.5ft 6s 5s 22 27 mph 1010.2mb 51f 37f
8:50am 4.5ft 7s 5s 20 25 mph 1010.9mb 51f 36f
7:50am 4.5ft 6s 5s 20 25 mph 1011.4mb 51f 35f
6:50am 4.5ft 7s 5s 22 27 mph 1011.5mb 51f 35f
5:50am 4.5ft 6s 5s 22 31 mph 1012mb 51f 35f
4:50am 4.5ft 7s 5s 22 29 mph 1012.7mb 51f 36f
3:50am 5ft 6s 5s 22 27 mph 1013.6mb 51f 35f
2:50am 5ft 6s 5s 25 29 mph 1014.3mb 51f 34f
1:50am 5ft 6s 5s 25 31 mph 1015.3mb 51f 34f
12:50am 4.5ft 6s 4s 22 27 mph 1016.2mb 51f 34f
Wed 11/19 11:50pm 4.5ft 5s 4s 25 31 mph 1016.8mb 51f 35f
10:50pm 4.5ft 5s 4s 22 31 mph 1016.8mb 51f 36f
9:50pm 4ft 5s 4s 22 31 mph 1017.3mb 51f 36f
8:50pm 3ft 4s 4s 25 29 mph 1017.4mb 52f 36f
7:50pm 2.5ft 4s 4s 22 27 mph 1017.5mb 51f 36f
6:50pm 2.5ft 11s 4s 20 22 mph 1018.1mb 51f 37f
5:50pm 2ft 11s 4s 20 25 mph 1018.3mb 51f 37f
4:50pm 2.5ft 10s 5s 16 22 mph 1018.2mb 51f 37f
3:50pm 2.5ft 10s 5s 13 18 mph 1018mb 51f 37f
2:50pm 2.5ft 11s 5s 13 20 mph 1017.6mb 51f 36f
1:50pm 2.5ft 10s 5s 16 22 mph 1017.5mb 52f 36f
12:50pm 3ft 10s 4s 16 22 mph 1017.6mb 52f 35f
11:50am 3.5ft 11s 4s 20 27 mph 1017.2mb 52f 34f
10:50am 3.5ft 11s 4s 18 25 mph 1017.2mb 52f 32f
9:50am 4ft 6s 4s 22 29 mph 1016.4mb 51f 32f
8:50am 4.5ft 5s 4s 22 29 mph 1015.5mb 52f 31f
7:50am 5ft 6s 4s 27 34 mph 1013.9mb 52f 30f
6:50am 5ft 6s 5s 29 38 mph 1012.4mb 52f 30f
5:50am 5ft 6s 5s 29 38 mph 1011.2mb 51f 29f
4:50am 5.5ft 6s 5s 29 36 mph 1010.9mb 51f 29f
3:50am 5.5ft 11s 5s 31 38 mph 1010mb 51f 29f
2:50am 5.5ft 11s 5s 31 40 mph 1009.4mb 51f 29f
1:50am 5ft 11s 5s 31 40 mph 1009.1mb 51f 29f
12:50am 5ft 12s 5s 29 38 mph 1009.3mb 51f 29f
Tue 11/18 11:50pm 5ft 12s 5s 31 38 mph 1008.9mb 51f 30f
10:50pm 5ft 11s 5s 31 43 mph 1008.2mb 51f 30f
9:50pm 4.5ft 11s 5s 27 36 mph 1008.4mb 51f 30f
8:50pm 4.5ft 11s 4s 27 36 mph 1008.2mb 51f 31f
7:50pm 4.5ft 12s 4s 29 36 mph 1007.6mb 51f 31f
6:50pm 4.5ft 12s 4s 29 36 mph 1006.6mb 51f 32f
5:50pm 4.5ft 5s 5s 27 34 mph 1005.9mb 51f 32f
4:50pm 5ft 11s 5s 27 34 mph 1005mb 51f 33f
3:50pm 5ft 4s 4s 29 38 mph 1003.7mb 51f 34f
2:50pm 5ft 11s 5s 31 38 mph 1002.2mb 51f 36f
1:50pm 5.5ft 11s 5s 27 34 mph 1001.7mb 51f 36f
12:50pm 5ft 11s 5s 29 36 mph 1000.8mb 51f 37f
11:50am 5ft 10s 5s 27 34 mph 1000.5mb 51f 38f
10:50am 5ft 10s 5s 27 34 mph 1000mb 51f 39f
9:50am 4.5ft 11s 5s 29 38 mph 999.4mb 51f 40f
8:50am 4.5ft 10s 5s 29 36 mph 998.7mb 51f 40f
7:50am 5ft 11s 5s 27 31 mph 998.1mb 51f 41f
6:50am 5ft 9s 5s 27 31 mph 996.7mb 51f 41f
5:50am 4.5ft 10s 6s 27 31 mph 996mb 51f 42f
4:50am 4.5ft 9s 6s 18 22 mph 996.2mb 50f 43f
3:50am 5ft 10s 7s 9 13 mph 995.9mb 50f 41f
2:50am 5ft 9s 6s 13 18 mph 995.4mb 50f 42f
1:50am 5ft 10s 7s 18 20 mph 995.1mb 51f 42f
12:50am 4.5ft 10s 7s 7 9 mph 995.4mb 51f 39f
Mon 11/17 11:50pm 4ft 8s 6s 7 9 mph 995.8mb 51f 38f
10:50pm 3.5ft 6s 5s 9 11 mph 996.1mb 51f 38f
9:50pm 4ft 6s 5s 11 13 mph 996.4mb 51f 38f
8:50pm 4ft 6s 5s 13 16 mph 996.8mb 51f 39f
7:50pm 4.5ft 6s 5s 13 16 mph 997.6mb 51f 39f
6:50pm 4.5ft 6s 5s 11 13 mph 999.1mb 51f 39f
5:50pm 4.5ft 6s 5s 16 20 mph 999.1mb 51f 40f
4:50pm 4ft 5s 4s 18 20 mph 1000.9mb 51f 40f
3:50pm 3.5ft 4s 4s 16 18 mph 1002.3mb 51f 42f
2:50pm 2.5ft 4s 4s 13 18 mph 1003.5mb 51f 47f
1:50pm 2.5ft 4s 4s 13 18 mph 1005.6mb 51f 46f
12:50pm 2.5ft 4s 4s 13 18 mph 1008.3mb 51f 45f
11:50am 2.5ft 3s 4s 16 20 mph 1009.9mb 51f 43f
10:50am 1.6ft 5s 3s 18 22 mph 1012.1mb 50f 41f
9:50am 1.6ft 5s 5s 16 20 mph 1013.4mb 50f 40f
8:50am 2ft 5s 5s 9 11 mph 1015.5mb 50f 39f
7:50am 2ft 5s 5s 4 7 mph 1016.5mb 50f 38f
6:50am 2.5ft 5s 4s 7 9 mph 1016.5mb 50f 37f
5:50am 2.5ft 5s 4s 9 11 mph 1017.2mb 50f 38f
4:50am 2.5ft 5s 4s 11 18 mph 1017.7mb 50f 42f
3:50am 3ft 5s 4s 13 16 mph 1018mb 50f 41f